ADDS METAR Data INFO
IDs: Format: Raw Decoded Include TAF

Data at: 2012 UTC 19 Oct 2017

KMTH 191953Z AUTO 04007KT 10SM CLR 29/23 A2995 RMK AO2 SLP142 T02940228
KMTH 191853Z AUTO 04008KT 10SM CLR 31/23 A2996 RMK AO2 SLP144 T03060233
KMTH 191753Z AUTO 04010KT 10SM CLR 31/23 A2998 RMK AO2 SLP150 T03060228 10306 20261 58018
KMTH 191653Z AUTO 03008KT 10SM CLR 30/23 A3000 RMK AO2 SLP160 T03000228
KMTH 191553Z AUTO 04007KT 10SM CLR 29/23 A3003 RMK AO2 SLP168 T02940228
KMTH 191453Z AUTO 05009KT 10SM CLR 28/23 A3003 RMK AO2 SLP168 T02830228 51014
KMTH 191353Z AUTO 03009KT 10SM CLR 28/23 A3002 RMK AO2 SLP165 T02780233
KMTH 191253Z AUTO 04008KT 10SM CLR 27/23 A3001 RMK AO2 SLP161 T02670233
KMTH 191153Z AUTO 04008KT 10SM CLR 26/23 A2999 RMK AO2 SLP154 70001 T02610228 10267 20256 53010
KMTH 191053Z AUTO 04008KT 10SM CLR 26/23 A2998 RMK AO2 SLP150 T02560233
KMTH 190953Z AUTO 03009KT 10SM CLR 26/23 A2997 RMK AO2 SLP146 T02610228
KMTH 190853Z AUTO 03010KT 10SM FEW012 26/23 A2996 RMK AO2 SLP144 T02610228 55012
KMTH 190753Z AUTO 02007KT 10SM CLR 26/23 A2996 RMK AO2 SLP143 T02610228
KMTH 190653Z AUTO 02007KT 10SM SCT016 27/23 A2997 RMK AO2 SLP149 T02670233
KMTH 190553Z AUTO 03006KT 10SM FEW018 FEW029 SCT044 27/23 A2999 RMK AO2 SLP155 T02670233 10278 20267 58012
KMTH 190453Z AUTO 05005KT 10SM CLR 27/23 A3001 RMK AO2 SLP161 T02720228 402940239
KMTH 190353Z AUTO 06004KT 10SM FEW019 27/23 A3002 RMK AO2 SLP165 T02720228
KMTH 190253Z AUTO 07004KT 10SM CLR 27/22 A3003 RMK AO2 SLP167 T02720222 53009
KMTH 190153Z AUTO 09004KT 10SM CLR 27/22 A3001 RMK AO2 SLP163 T02720222
KMTH 190053Z AUTO 06005KT 10SM FEW090 28/22 A3000 RMK AO2 SLP159 T02780217
KMTH 182353Z AUTO 04007KT 10SM FEW020 27/23 A3000 RMK AO2 SLP158 T02720228 10294 20272 53014
KMTH 182253Z AUTO 06007KT 10SM CLR 28/21 A2998 RMK AO2 SLP151 T02780211
KMTH 182153Z AUTO 06007KT 10SM CLR 28/22 A2996 RMK AO2 SLP146 T02780222
KMTH 182053Z AUTO 04005KT 10SM CLR 28/22 A2996 RMK AO2 SLP144 T02780217 56015
KMTH 181953Z AUTO VRB04KT 10SM CLR 28/22 A2996 RMK AO2 SLP145 T02830222
KMTH 181914Z AUTO 15005KT 10SM FEW016 SCT021 SCT026 27/22 A2998 RMK AO2 T02720222
KMTH 181902Z AUTO 15008KT 10SM FEW016 SCT021 BKN027 27/23 A2998 RMK AO2 T02720228
KMTH 181853Z AUTO 15006KT 10SM SCT014 SCT038 BKN049 28/23 A2998 RMK AO2 SLP151 T02780228
KMTH 181753Z AUTO 06006KT 10SM OVC110 28/21 A3000 RMK AO2 RAE02 SLP158 P0000 60001 T02830211 10283 20239 58008
KMTH 181653Z AUTO 06005KT 10SM -RA BKN110 28/22 A3003 RMK AO2 RAB50 SLP167 P0000 T02780217
KMTH 181553Z AUTO 07005KT 10SM FEW030 FEW050 BKN110 28/22 A3004 RMK AO2 RAB26E49 SLP173 P0000 T02780217
KMTH 181453Z AUTO 07008KT 10SM SCT100 27/23 A3002 RMK AO2 SLP167 60001 T02670228 51015
KMTH 181353Z AUTO 07007KT 10SM BKN110 26/21 A3002 RMK AO2 RAE31 SLP164 P0001 T02560206
KMTH 181253Z AUTO 12006KT 10SM -RA FEW100 BKN120 24/21 A3000 RMK AO2 LTG DSNT S RAB08 SLP158 P0000 T02440206
KMTH 181153Z AUTO 03009KT 10SM FEW110 27/22 A2998 RMK AO2 SLP152 60000 T02670217 10278 20267 51015
KMTH 181053Z AUTO 05011KT 10SM CLR 27/22 A2996 RMK AO2 SLP146 T02720217
KMTH 180953Z AUTO 06004KT 10SM FEW028 FEW120 28/22 A2996 RMK AO2 SLP144 T02780222
KMTH 180853Z AUTO 07005KT 10SM CLR 28/22 A2994 RMK AO2 SLP137 60000 T02780217 56013